createdAt,value
2019-02-19T00:00:33.703Z,111.10
2019-02-19T00:03:02.243Z,112.10
2019-02-19T00:05:30.526Z,107.17
2019-02-19T00:07:58.826Z,111.07
2019-02-19T00:10:27.135Z,101.97
2019-02-19T00:12:55.490Z,92.83
2019-02-19T00:15:25.118Z,91.70
2019-02-19T00:17:53.433Z,96.40
2019-02-19T00:20:21.963Z,107.00
2019-02-19T00:22:50.272Z,120.63
2019-02-19T00:25:18.829Z,123.70
2019-02-19T00:27:47.149Z,122.23
2019-02-19T00:30:15.546Z,134.80
2019-02-19T00:32:44.186Z,126.70
2019-02-19T00:35:12.755Z,112.37
2019-02-19T00:37:41.337Z,127.10
2019-02-19T00:40:09.677Z,131.93
2019-02-19T00:42:37.968Z,135.80
2019-02-19T00:45:06.959Z,137.43
2019-02-19T00:47:35.285Z,140.13
2019-02-19T00:50:04.365Z,131.67
2019-02-19T00:52:32.650Z,133.37
2019-02-19T00:55:01.219Z,130.97
2019-02-19T00:57:31.330Z,140.13
2019-02-19T00:59:59.634Z,160.37
2019-02-19T01:02:27.930Z,151.80
2019-02-19T01:04:56.574Z,142.13
2019-02-19T01:07:25.162Z,147.73
2019-02-19T01:09:53.466Z,150.90
2019-02-19T01:12:21.765Z,136.87
2019-02-19T01:14:50.056Z,140.80
2019-02-19T01:17:18.395Z,138.30
2019-02-19T01:19:46.957Z,136.47
2019-02-19T01:22:15.257Z,134.83
2019-02-19T01:24:43.807Z,127.57
2019-02-19T01:27:12.114Z,132.57
2019-02-19T01:29:40.401Z,133.33
2019-02-19T01:32:09.067Z,130.60
2019-02-19T01:34:37.357Z,129.40
2019-02-19T01:37:05.646Z,125.93
2019-02-19T01:39:33.957Z,124.40
2019-02-19T01:42:02.316Z,126.13
2019-02-19T01:44:30.946Z,121.57
2019-02-19T01:46:59.546Z,120.90
2019-02-19T01:49:27.825Z,118.47
2019-02-19T01:51:56.398Z,117.90
2019-02-19T01:54:25.092Z,116.20
2019-02-19T01:56:53.780Z,113.17
2019-02-19T01:59:22.455Z,114.53
2019-02-19T02:01:50.877Z,118.57
2019-02-19T02:04:19.171Z,114.87
2019-02-19T02:06:47.805Z,114.43
2019-02-19T02:09:16.380Z,114.40
2019-02-19T02:11:44.666Z,106.17
2019-02-19T02:14:13.342Z,106.03
2019-02-19T02:16:41.929Z,106.00
2019-02-19T02:19:10.225Z,106.63
2019-02-19T02:21:38.787Z,100.83
2019-02-19T02:24:07.370Z,99.93
2019-02-19T02:26:35.962Z,100.37
2019-02-19T02:29:04.264Z,97.63
2019-02-19T02:31:32.551Z,100.33
2019-02-19T02:34:01.231Z,103.33
2019-02-19T02:36:29.537Z,94.47
2019-02-19T02:38:58.156Z,94.87
2019-02-19T02:41:26.740Z,90.87
2019-02-19T02:43:55.023Z,92.40
2019-02-19T02:46:23.343Z,96.50
2019-02-19T02:48:51.978Z,93.17
2019-02-19T02:51:20.271Z,92.80
2019-02-19T02:53:48.836Z,91.37
2019-02-19T02:56:17.118Z,87.23
2019-02-19T02:58:45.697Z,88.13
2019-02-19T03:01:13.984Z,85.33
2019-02-19T03:03:42.530Z,85.43
2019-02-19T03:06:12.452Z,85.80
2019-02-19T03:08:40.767Z,84.37
2019-02-19T03:11:10.893Z,81.87
2019-02-19T03:13:39.294Z,84.80
2019-02-19T03:16:07.590Z,77.77
2019-02-19T03:18:36.212Z,83.10
2019-02-19T03:21:04.501Z,77.90
2019-02-19T03:23:32.788Z,81.87
2019-02-19T03:26:01.087Z,78.63
2019-02-19T03:28:29.386Z,79.00
2019-02-19T03:30:57.720Z,80.03
2019-02-19T03:33:26.098Z,76.57
2019-02-19T03:35:54.674Z,73.07
2019-02-19T03:38:22.957Z,77.23
2019-02-19T03:40:51.267Z,74.33
2019-02-19T03:43:20.511Z,70.37
2019-02-19T03:45:49.060Z,73.27
2019-02-19T03:48:17.341Z,70.10
2019-02-19T03:50:50.662Z,72.77
2019-02-19T03:53:18.957Z,70.00
2019-02-19T03:55:47.626Z,70.00
2019-02-19T03:58:15.904Z,69.53
2019-02-19T04:00:44.219Z,66.07
2019-02-19T04:03:12.537Z,70.00
2019-02-19T04:05:40.881Z,64.80
2019-02-19T04:08:09.165Z,66.53
2019-02-19T04:10:37.471Z,66.13
2019-02-19T04:13:05.747Z,66.57
2019-02-19T04:15:34.149Z,64.23
2019-02-19T04:18:02.838Z,61.23
2019-02-19T04:20:31.118Z,63.10
2019-02-19T04:22:59.693Z,63.80
2019-02-19T04:25:28.018Z,61.23
2019-02-19T04:27:56.561Z,59.63
2019-02-19T04:30:25.142Z,61.40
2019-02-19T04:32:53.438Z,60.67
2019-02-19T04:35:21.747Z,58.33
2019-02-19T04:37:50.483Z,57.73
2019-02-19T04:40:19.060Z,57.90
2019-02-19T04:42:47.357Z,57.77
2019-02-19T04:45:15.740Z,55.77
2019-02-19T04:47:44.303Z,57.30
2019-02-19T04:50:12.587Z,54.57
2019-02-19T04:52:40.878Z,53.60
2019-02-19T04:55:09.162Z,51.30
2019-02-19T04:57:37.470Z,53.07
2019-02-19T05:00:09.434Z,52.03
2019-02-19T05:02:37.744Z,54.63
2019-02-19T05:05:06.497Z,52.03
2019-02-19T05:07:35.037Z,53.80
2019-02-19T05:10:04.159Z,49.33
2019-02-19T05:12:32.458Z,49.50
2019-02-19T05:15:00.735Z,49.20
2019-02-19T05:17:29.351Z,46.57
2019-02-19T05:19:57.938Z,52.33
2019-02-19T05:22:26.218Z,45.80
2019-02-19T05:24:54.529Z,50.50
2019-02-19T05:27:23.178Z,49.10
2019-02-19T05:29:51.770Z,48.17
2019-02-19T05:32:20.077Z,49.43
2019-02-19T05:34:48.385Z,46.67
2019-02-19T05:37:16.998Z,50.17
2019-02-19T05:39:45.577Z,45.03
2019-02-19T05:42:13.882Z,44.60
2019-02-19T05:44:42.163Z,45.17
2019-02-19T05:47:10.443Z,45.13
2019-02-19T05:49:38.752Z,44.37
2019-02-19T05:52:07.055Z,44.70
2019-02-19T05:54:35.334Z,43.73
2019-02-19T05:57:03.932Z,42.30
2019-02-19T05:59:32.638Z,42.07
2019-02-19T06:02:01.009Z,42.33
2019-02-19T06:04:29.327Z,41.67
2019-02-19T06:06:57.679Z,41.07
2019-02-19T06:09:25.975Z,41.83
2019-02-19T06:11:54.283Z,42.40
2019-02-19T06:14:22.826Z,40.20
2019-02-19T06:16:58.353Z,36.57
2019-02-19T06:19:21.149Z,37.97
2019-02-19T06:21:49.425Z,39.47
2019-02-19T06:24:17.994Z,38.80
2019-02-19T06:26:46.624Z,36.40
2019-02-19T06:29:15.211Z,38.33
2019-02-19T06:31:43.522Z,38.10
2019-02-19T06:34:11.826Z,37.20
2019-02-19T06:36:40.454Z,36.30
2019-02-19T06:39:08.757Z,41.27
2019-02-19T06:41:37.457Z,35.23
2019-02-19T06:44:05.828Z,38.00
2019-02-19T06:46:34.111Z,35.87
2019-02-19T06:49:02.754Z,36.77
2019-02-19T06:51:31.057Z,36.83
2019-02-19T06:53:59.714Z,33.87
2019-02-19T06:56:28.304Z,35.20
2019-02-19T06:58:56.886Z,36.50
2019-02-19T07:01:42.066Z,34.20
2019-02-19T07:04:15.250Z,33.93
2019-02-19T07:06:43.547Z,33.13
2019-02-19T07:09:11.835Z,31.60
2019-02-19T07:11:40.147Z,31.67
2019-02-19T07:14:08.425Z,35.10
2019-02-19T07:16:37.046Z,33.90
2019-02-19T07:19:05.329Z,30.50
2019-02-19T07:21:33.602Z,32.03
2019-02-19T07:24:04.405Z,35.27
2019-02-19T07:26:31.921Z,30.90
2019-02-19T07:29:00.315Z,29.47
2019-02-19T07:31:28.956Z,41.63
2019-02-19T07:33:57.240Z,42.07
2019-02-19T07:36:25.816Z,44.03
2019-02-19T07:38:54.401Z,50.00
2019-02-19T07:41:22.989Z,51.43
2019-02-19T07:43:51.872Z,59.47
2019-02-19T07:46:20.165Z,63.83
2019-02-19T07:48:48.478Z,62.80
2019-02-19T07:51:16.764Z,62.07
2019-02-19T07:53:45.401Z,61.17
2019-02-19T07:56:13.908Z,57.43
2019-02-19T07:58:42.586Z,91.83
2019-02-19T08:01:11.251Z,114.17
2019-02-19T08:03:39.932Z,106.63
2019-02-19T08:06:08.545Z,108.70
2019-02-19T08:08:37.203Z,98.53
2019-02-19T08:11:05.896Z,96.47
2019-02-19T08:13:34.215Z,100.50
2019-02-19T08:16:02.521Z,89.60
2019-02-19T08:18:30.818Z,92.53
2019-02-19T08:20:59.108Z,83.30
2019-02-19T08:23:29.883Z,87.17
2019-02-19T08:26:00.492Z,83.83
2019-02-19T08:28:29.143Z,93.90
2019-02-19T08:30:57.431Z,105.07
2019-02-19T08:33:25.746Z,123.27
2019-02-19T08:35:54.489Z,127.00
2019-02-19T08:38:23.084Z,124.07
2019-02-19T08:40:51.519Z,107.90
2019-02-19T08:43:20.145Z,104.70
2019-02-19T08:45:48.720Z,102.40
2019-02-19T08:48:17.028Z,108.63
2019-02-19T08:50:45.317Z,178.23
2019-02-19T08:53:13.975Z,139.90
2019-02-19T08:55:42.279Z,142.03
2019-02-19T08:58:10.574Z,141.80
2019-02-19T09:00:38.887Z,140.47
2019-02-19T09:03:07.590Z,133.10
2019-02-19T09:05:37.587Z,154.63
2019-02-19T09:08:06.179Z,147.80
2019-02-19T09:10:34.767Z,147.63
2019-02-19T09:13:03.362Z,149.40
2019-02-19T09:15:31.846Z,142.83
2019-02-19T09:18:00.150Z,135.23
2019-02-19T09:20:28.484Z,128.83
2019-02-19T09:22:56.809Z,127.10
2019-02-19T09:25:25.107Z,119.83
2019-02-19T09:27:53.726Z,124.63
2019-02-19T09:30:22.311Z,114.60
2019-02-19T09:32:50.626Z,110.67
2019-02-19T09:35:18.966Z,113.70
2019-02-19T09:37:47.333Z,103.80
2019-02-19T09:40:15.615Z,107.93
2019-02-19T09:42:43.926Z,102.47
2019-02-19T09:45:12.211Z,99.67
2019-02-19T09:47:40.784Z,96.20
2019-02-19T09:50:10.572Z,93.23
2019-02-19T09:52:39.161Z,101.13
2019-02-19T09:55:07.875Z,86.63
2019-02-19T09:57:36.278Z,81.17
2019-02-19T10:00:08.280Z,75.67
2019-02-19T10:02:36.874Z,75.50
2019-02-19T10:05:07.223Z,69.37
2019-02-19T10:07:35.791Z,71.80
2019-02-19T10:10:05.414Z,68.10
2019-02-19T10:12:33.966Z,67.33
2019-02-19T10:15:02.346Z,62.97
2019-02-19T10:17:30.643Z,74.73
2019-02-19T10:19:58.945Z,71.73
2019-02-19T10:22:27.265Z,76.70
2019-02-19T10:24:56.799Z,75.40
2019-02-19T10:27:25.528Z,71.83
2019-02-19T10:29:56.645Z,66.10
2019-02-19T10:32:24.944Z,56.73
2019-02-19T10:34:53.566Z,52.30
2019-02-19T10:37:21.934Z,56.40
2019-02-19T10:39:50.549Z,56.17
2019-02-19T10:42:19.141Z,61.23
2019-02-19T10:44:47.450Z,59.97
2019-02-19T10:47:15.814Z,53.17
2019-02-19T10:49:44.099Z,49.63
2019-02-19T10:52:12.399Z,54.03
2019-02-19T10:54:40.699Z,51.03
2019-02-19T10:57:08.983Z,49.73
2019-02-19T10:59:37.383Z,48.53
2019-02-19T11:02:05.690Z,49.13
2019-02-19T11:04:34.235Z,46.47
2019-02-19T11:07:02.823Z,50.33
2019-02-19T11:09:31.414Z,41.13
2019-02-19T11:11:59.714Z,43.87
2019-02-19T11:14:28.266Z,42.70
2019-02-19T11:16:56.568Z,43.33
2019-02-19T11:19:24.855Z,42.43
2019-02-19T11:21:53.508Z,38.30
2019-02-19T11:24:21.818Z,36.50
2019-02-19T11:26:50.122Z,44.83
2019-02-19T11:29:18.407Z,40.03
2019-02-19T11:31:46.706Z,40.13
2019-02-19T11:34:15.295Z,38.90
2019-02-19T11:36:43.589Z,36.07
2019-02-19T11:39:12.157Z,35.93
2019-02-19T11:41:40.467Z,34.27
2019-02-19T11:44:08.848Z,34.77
2019-02-19T11:46:37.150Z,32.37
2019-02-19T11:49:05.636Z,32.10
2019-02-19T11:51:33.971Z,31.57
2019-02-19T11:54:02.366Z,29.17
2019-02-19T11:56:30.859Z,26.37
2019-02-19T11:58:59.499Z,32.70
2019-02-19T12:01:28.081Z,28.47
2019-02-19T12:03:56.378Z,30.77
2019-02-19T12:06:24.677Z,30.20
2019-02-19T12:08:53.320Z,25.93
2019-02-19T12:11:21.657Z,24.27
2019-02-19T12:13:49.958Z,28.67
2019-02-19T12:16:18.765Z,27.10
2019-02-19T12:18:47.043Z,26.33
2019-02-19T12:21:15.363Z,23.23
2019-02-19T12:23:43.656Z,24.83
2019-02-19T12:26:11.950Z,25.00
2019-02-19T12:28:40.582Z,22.03
2019-02-19T12:31:09.249Z,24.33
2019-02-19T12:33:37.535Z,22.97
2019-02-19T12:36:05.850Z,22.50
2019-02-19T12:38:34.194Z,23.23
2019-02-19T12:41:02.758Z,18.73
2019-02-19T12:43:31.079Z,21.27
2019-02-19T12:46:01.016Z,21.97
2019-02-19T12:48:29.635Z,21.67
2019-02-19T12:50:58.219Z,22.13
2019-02-19T12:53:26.906Z,18.70
2019-02-19T12:55:57.925Z,19.77
2019-02-19T12:58:27.520Z,18.70
2019-02-19T13:00:55.927Z,47.87
2019-02-19T13:03:24.514Z,44.00
2019-02-19T13:05:53.102Z,39.90
2019-02-19T13:08:21.391Z,43.10
2019-02-19T13:10:49.692Z,47.27
2019-02-19T13:13:18.238Z,49.43
2019-02-19T13:15:46.542Z,50.20
2019-02-19T13:18:14.829Z,86.20
2019-02-19T13:20:43.478Z,84.67
2019-02-19T13:23:11.783Z,83.73
2019-02-19T13:25:40.068Z,85.47
2019-02-19T13:28:08.390Z,76.93
2019-02-19T13:30:36.997Z,79.07
2019-02-19T13:33:05.571Z,79.83
2019-02-19T13:35:33.875Z,76.00
2019-02-19T13:38:02.438Z,86.63
2019-02-19T13:40:30.737Z,91.30
2019-02-19T13:42:59.036Z,86.63
2019-02-19T13:45:27.672Z,76.73
2019-02-19T13:47:56.359Z,75.57
2019-02-19T13:50:26.300Z,74.60
2019-02-19T13:53:11.625Z,74.90
2019-02-19T13:55:41.881Z,81.30
2019-02-19T13:58:10.468Z,93.33
2019-02-19T14:00:40.697Z,78.90
2019-02-19T14:03:09.010Z,72.80
2019-02-19T14:05:37.651Z,62.33
2019-02-19T14:08:13.981Z,61.27
2019-02-19T14:10:36.349Z,60.20
2019-02-19T14:13:06.496Z,59.63
2019-02-19T14:15:52.769Z,55.97
2019-02-19T14:18:32.073Z,57.33
2019-02-19T14:21:11.130Z,55.23
2019-02-19T14:23:43.527Z,63.90
2019-02-19T14:26:39.657Z,63.37
2019-02-19T14:29:26.342Z,64.23
2019-02-19T14:31:58.932Z,56.77
2019-02-19T14:34:28.893Z,55.10
2019-02-19T14:37:10.535Z,60.37
2019-02-19T14:39:52.648Z,51.80
2019-02-19T14:42:28.512Z,47.80
2019-02-19T14:45:13.740Z,48.30
2019-02-19T14:47:46.949Z,48.20
2019-02-19T14:50:23.047Z,52.27
2019-02-19T14:52:56.531Z,51.23
2019-02-19T14:55:43.222Z,49.37
2019-02-19T14:58:20.006Z,51.53
2019-02-19T15:01:08.752Z,45.40
2019-02-19T15:03:50.799Z,44.83
2019-02-19T15:06:36.232Z,41.90
2019-02-19T15:09:26.024Z,42.10
2019-02-19T15:11:58.853Z,43.27
2019-02-19T15:14:29.121Z,45.83
2019-02-19T15:17:13.761Z,49.57
2019-02-19T15:19:46.759Z,43.70
2019-02-19T15:22:16.979Z,43.27
2019-02-19T15:25:01.897Z,38.37
2019-02-19T15:27:38.117Z,39.43
2019-02-19T15:30:13.147Z,36.33
2019-02-19T15:33:01.381Z,39.90
2019-02-19T15:35:49.134Z,37.37
2019-02-19T15:38:19.452Z,33.97
2019-02-19T15:41:05.951Z,33.73
2019-02-19T15:43:39.043Z,34.43
2019-02-19T15:46:25.515Z,32.60
2019-02-19T15:49:04.987Z,32.03
2019-02-19T15:51:35.208Z,30.93
2019-02-19T15:54:21.707Z,30.90
2019-02-19T15:57:00.283Z,31.60
2019-02-19T15:59:36.186Z,31.17
2019-02-19T16:02:09.271Z,40.30
2019-02-19T16:04:45.023Z,40.70
2019-02-19T16:07:30.424Z,37.03
2019-02-19T16:10:03.288Z,33.67
2019-02-19T16:12:36.040Z,37.73
2019-02-19T16:15:11.208Z,31.20
2019-02-19T16:17:56.125Z,28.27
2019-02-19T16:20:26.398Z,33.37
2019-02-19T16:23:04.984Z,35.67
2019-02-19T16:25:35.036Z,32.70
2019-02-19T16:28:07.820Z,41.50
2019-02-19T16:30:49.887Z,37.03
2019-02-19T16:33:19.832Z,35.33
2019-02-19T16:35:55.643Z,36.90
2019-02-19T16:38:31.750Z,41.53
2019-02-19T16:41:14.256Z,40.83
2019-02-19T16:43:56.180Z,42.37
2019-02-19T16:46:44.609Z,45.23
2019-02-19T16:49:20.417Z,39.53
2019-02-19T16:51:50.338Z,44.40
2019-02-19T16:54:20.605Z,52.07
2019-02-19T16:57:02.907Z,51.00
2019-02-19T16:59:33.125Z,50.97
2019-02-19T17:02:05.734Z,54.30
2019-02-19T17:04:36.127Z,54.13
2019-02-19T17:07:06.072Z,56.37
2019-02-19T17:09:36.270Z,56.57
2019-02-19T17:12:18.102Z,52.83
2019-02-19T17:14:54.019Z,47.53
2019-02-19T17:17:30.188Z,49.70
2019-02-19T17:20:26.553Z,49.27
2019-02-19T17:23:05.838Z,46.07
2019-02-19T17:25:35.760Z,52.70
2019-02-19T17:28:05.799Z,45.47
2019-02-19T17:30:35.796Z,88.20
2019-02-19T17:33:24.267Z,56.10
2019-02-19T17:36:03.702Z,71.43
2019-02-19T17:38:42.659Z,62.90
2019-02-19T17:41:12.583Z,54.47
2019-02-19T17:43:42.855Z,53.87
2019-02-19T17:46:13.046Z,53.80
2019-02-19T17:48:42.982Z,55.30
2019-02-19T17:51:13.163Z,47.60
2019-02-19T17:53:58.320Z,44.17
2019-02-19T17:56:28.301Z,50.80
2019-02-19T17:59:00.887Z,49.40
2019-02-19T18:01:42.797Z,47.67
2019-02-19T18:04:18.625Z,51.73
2019-02-19T18:07:00.330Z,59.93
2019-02-19T18:09:36.514Z,54.93
2019-02-19T18:12:09.318Z,54.00
2019-02-19T18:14:57.831Z,49.53
2019-02-19T18:17:27.784Z,45.27
2019-02-19T18:19:56.070Z,47.93
2019-02-19T18:22:24.376Z,46.60
2019-02-19T18:24:52.959Z,42.40
2019-02-19T18:27:21.552Z,42.00
2019-02-19T18:29:49.857Z,37.00
2019-02-19T18:32:18.184Z,42.07
2019-02-19T18:34:46.546Z,43.03
2019-02-19T18:37:14.907Z,41.70
2019-02-19T18:39:43.475Z,43.87
2019-02-19T18:42:11.787Z,39.63
2019-02-19T18:44:40.425Z,39.57
2019-02-19T18:47:08.828Z,34.80
2019-02-19T18:49:37.842Z,38.40
2019-02-19T18:52:06.473Z,42.23
2019-02-19T18:54:34.778Z,44.97
2019-02-19T18:57:03.116Z,46.30
2019-02-19T18:59:31.737Z,51.70
2019-02-19T19:02:00.046Z,47.30
2019-02-19T19:04:28.419Z,48.80
2019-02-19T19:06:57.066Z,47.60
2019-02-19T19:09:27.270Z,42.53
2019-02-19T19:11:56.169Z,37.60
2019-02-19T19:14:24.742Z,38.03
2019-02-19T19:16:53.034Z,39.83
2019-02-19T19:19:21.661Z,38.53
2019-02-19T19:21:50.001Z,35.50
2019-02-19T19:24:18.583Z,41.10
2019-02-19T19:26:46.951Z,50.67
2019-02-19T19:29:15.549Z,52.50
2019-02-19T19:31:44.176Z,42.90
2019-02-19T19:34:12.969Z,45.00
2019-02-19T19:36:41.413Z,41.60
2019-02-19T19:39:10.093Z,41.13
2019-02-19T19:41:38.767Z,39.17
2019-02-19T19:44:07.183Z,38.63
2019-02-19T19:46:35.561Z,39.00
2019-02-19T19:49:04.210Z,34.17
2019-02-19T19:51:32.789Z,36.27
2019-02-19T19:54:01.373Z,35.87
2019-02-19T19:56:30.165Z,35.80
2019-02-19T19:58:58.740Z,38.37
2019-02-19T20:01:27.058Z,48.33
2019-02-19T20:03:55.704Z,53.50
2019-02-19T20:06:24.096Z,51.47
2019-02-19T20:08:52.767Z,50.07
2019-02-19T20:11:21.374Z,52.43
2019-02-19T20:13:49.678Z,46.23
2019-02-19T20:16:18.323Z,42.83
2019-02-19T20:18:47.012Z,40.80
2019-02-19T20:21:15.308Z,39.53
2019-02-19T20:23:43.878Z,38.17
2019-02-19T20:26:12.547Z,36.07
2019-02-19T20:28:40.872Z,35.77
2019-02-19T20:31:09.164Z,33.33
2019-02-19T20:33:37.810Z,32.57
2019-02-19T20:36:06.184Z,33.43
2019-02-19T20:38:34.800Z,32.30
2019-02-19T20:41:03.585Z,32.60
2019-02-19T20:43:32.282Z,33.53
2019-02-19T20:46:00.952Z,50.50
2019-02-19T20:48:29.617Z,45.80
2019-02-19T20:50:58.179Z,47.77
2019-02-19T20:53:26.581Z,46.10
2019-02-19T20:55:55.017Z,41.77
2019-02-19T20:58:23.383Z,41.43
2019-02-19T21:00:53.292Z,39.97
2019-02-19T21:03:21.950Z,37.57
2019-02-19T21:05:50.255Z,40.07
2019-02-19T21:08:18.588Z,36.53
2019-02-19T21:10:47.283Z,35.33
2019-02-19T21:13:15.849Z,36.40
2019-02-19T21:15:44.328Z,37.30
2019-02-19T21:18:13.691Z,40.60
2019-02-19T21:20:42.532Z,40.93
2019-02-19T21:23:10.915Z,40.53
2019-02-19T21:25:39.241Z,39.70
2019-02-19T21:28:07.960Z,41.07
2019-02-19T21:30:36.417Z,39.00
2019-02-19T21:33:04.760Z,40.20
2019-02-19T21:35:33.172Z,43.80
2019-02-19T21:38:01.556Z,45.90
2019-02-19T21:40:29.913Z,50.33
2019-02-19T21:42:58.559Z,48.03
2019-02-19T21:45:27.247Z,46.40
2019-02-19T21:47:55.561Z,46.33
2019-02-19T21:50:24.199Z,42.57
2019-02-19T21:52:52.917Z,41.70
2019-02-19T21:55:21.260Z,37.87
2019-02-19T21:57:52.312Z,48.53
2019-02-19T22:00:21.973Z,56.90
2019-02-19T22:02:50.360Z,52.97
2019-02-19T22:05:18.975Z,52.23
2019-02-19T22:07:47.558Z,48.67
2019-02-19T22:10:16.157Z,42.23
2019-02-19T22:12:44.726Z,41.83
2019-02-19T22:15:16.400Z,43.87
2019-02-19T22:17:44.754Z,44.73
2019-02-19T22:20:17.002Z,48.30
2019-02-19T22:22:45.317Z,45.17
2019-02-19T22:25:13.682Z,43.43
2019-02-19T22:27:42.271Z,43.83
2019-02-19T22:30:10.569Z,42.23
2019-02-19T22:32:38.863Z,40.50
2019-02-19T22:35:07.603Z,47.77
2019-02-19T22:37:36.203Z,54.73
2019-02-19T22:40:06.855Z,55.53
2019-02-19T22:42:35.223Z,86.80
2019-02-19T22:45:04.412Z,83.67
2019-02-19T22:47:32.767Z,75.40
2019-02-19T22:50:01.379Z,86.47
2019-02-19T22:52:29.679Z,74.80
2019-02-19T22:55:02.526Z,80.27
2019-02-19T22:57:30.828Z,82.17
2019-02-19T22:59:59.152Z,96.03
2019-02-19T23:02:27.438Z,95.27
2019-02-19T23:04:55.723Z,89.77
2019-02-19T23:07:26.201Z,81.57
2019-02-19T23:09:54.862Z,68.07
2019-02-19T23:12:23.448Z,92.23
2019-02-19T23:14:52.027Z,113.00
2019-02-19T23:17:20.715Z,96.13
2019-02-19T23:19:49.303Z,114.03
2019-02-19T23:22:21.701Z,112.47
2019-02-19T23:24:47.738Z,93.47
2019-02-19T23:27:16.035Z,105.80
2019-02-19T23:29:44.343Z,107.13
2019-02-19T23:32:12.891Z,91.03
2019-02-19T23:34:41.190Z,82.03
2019-02-19T23:37:09.569Z,107.63
2019-02-19T23:39:43.545Z,102.73
2019-02-19T23:42:08.232Z,101.73
2019-02-19T23:44:36.721Z,99.73
2019-02-19T23:47:05.047Z,97.23
2019-02-19T23:49:33.734Z,93.77
2019-02-19T23:52:02.027Z,95.07
2019-02-19T23:54:30.327Z,93.13
2019-02-19T23:56:58.970Z,87.83
2019-02-19T23:59:28.002Z,88.83
